Terminal Aerodrome Forecast
Issued by NWS

Home | Current Version | Previous Version | Text Only | Print | Product List | Glossary On
Versions: 1 2 3 4 5 6 7 8 9 10 11 12 13 14 15
000
FTUS46 KSEW 291616 AAA
TAFPAE
TAF AMD
KPAE 291616Z 2916/3012 21005KT P6SM SCT008
      TEMPO 2916/2918 5SM BR BKN006
     FM291900 28005KT P6SM SKC
     FM292200 29005KT P6SM SCT250
     FM300300 VRB05KT P6SM SCT090 BKN250
     FM300600 VRB05KT P6SM FEW015 BKN090 BKN250
     FM300900 19005KT P6SM OVC008=

USA.gov is the U.S. government's official web portal to all federal, state and local government web resources and services.